CheckWX is a tool to help pilots better visualize weather data.  It is not intended as a substitute for an official pre-flight weather briefing.

20:55:58 UTC

KSUU METAR
Travis AFB Airport
Fairfield, California, USA
Current

58 mins ago

KSUU 181958Z AUTO 01018G24KT 10SM CLR 12/M02 A3024 RMK AO2 SLP247 T01181017 $
Observed
Feb-18 @ 19:58 UTC
Wind
  • 010° at 18 KTS
  • Gusting to 24 KTS
Visibility
10 SM
Flight Rules
VFR
Cloud Levels
  • Clear skies
Temperature
12°C / 54°F
Dewpoint
-2°C / 28°F
Humidity
38%
Altimeter
30.24" Hg
Pressure
1024.7 hPa
Previous

2 hours ago

KSUU 181858Z COR 36018KT 10SM CLR 11/M02 A3024 RMK AO2A PK WND 35029/27 SLP247 T01091022 $ COR 1904
Observed
Feb-18 @ 18:58 UTC
Wind
  • 360° at 18 KTS
Visibility
10 SM
Flight Rules
VFR
Cloud Levels
  • Clear skies
Temperature
11°C / 52°F
Dewpoint
-2°C / 28°F
Humidity
41%
Altimeter
30.24" Hg
Pressure
1024.7 hPa
Previous

3 hours ago

KSUU 181758Z AUTO 34014G19KT 10SM CLR 10/M03 A3023 RMK AO2 PK WND 34028/28 SLP244 T00961030 10096 20048 52021 $
Observed
Feb-18 @ 17:58 UTC
Wind
  • 340° at 14 KTS
  • Gusting to 19 KTS
Visibility
10 SM
Flight Rules
VFR
Cloud Levels
  • Clear skies
Temperature
10°C / 50°F
Dewpoint
-3°C / 27°F
Humidity
40%
Altimeter
30.23" Hg
Pressure
1024.4 hPa